createdAt,value
2018-07-07T00:00:00.284Z,1015.97
2018-07-07T00:01:00.973Z,1015.99
2018-07-07T00:02:00.258Z,1015.98
2018-07-07T00:03:00.962Z,1015.98
2018-07-07T00:04:00.963Z,1015.98
2018-07-07T00:05:00.913Z,1016.02
2018-07-07T00:06:00.261Z,1015.99
2018-07-07T00:07:00.990Z,1015.99
2018-07-07T00:08:01.049Z,1016.00
2018-07-07T00:09:01.092Z,1015.99
2018-07-07T00:10:01.913Z,1015.98
2018-07-07T00:11:01.027Z,1015.97
2018-07-07T00:12:01.319Z,1016.00
2018-07-07T00:13:01.628Z,1016.02
2018-07-07T00:14:01.577Z,1016.00
2018-07-07T00:15:01.873Z,1015.99
2018-07-07T00:16:01.834Z,1015.96
2018-07-07T00:17:01.618Z,1015.98
2018-07-07T00:18:01.802Z,1015.98
2018-07-07T00:19:01.306Z,1015.98
2018-07-07T00:20:01.364Z,1015.96
2018-07-07T00:21:01.767Z,1016.02
2018-07-07T00:22:01.794Z,1016.03
2018-07-07T00:23:01.314Z,1016.01
2018-07-07T00:24:03.594Z,1016.03
2018-07-07T00:25:01.847Z,1016.07
2018-07-07T00:26:01.317Z,1016.10
2018-07-07T00:27:01.794Z,1016.11
2018-07-07T00:28:01.811Z,1016.10
2018-07-07T00:29:01.362Z,1016.12
2018-07-07T00:30:01.835Z,1016.09
2018-07-07T00:31:01.847Z,1016.12
2018-07-07T00:32:01.370Z,1016.11
2018-07-07T00:33:01.836Z,1016.11
2018-07-07T00:34:02.035Z,1016.12
2018-07-07T00:35:01.333Z,1016.12
2018-07-07T00:36:01.852Z,1016.11
2018-07-07T00:37:01.852Z,1016.10
2018-07-07T00:38:01.355Z,1016.11
2018-07-07T00:39:01.815Z,1016.12
2018-07-07T00:40:04.073Z,1016.12
2018-07-07T00:41:01.325Z,1016.11
2018-07-07T00:42:01.775Z,1016.12
2018-07-07T00:43:01.405Z,1016.10
2018-07-07T00:44:01.796Z,1016.14
2018-07-07T00:45:01.799Z,1016.09
2018-07-07T00:46:01.839Z,1016.13
2018-07-07T00:47:01.757Z,1016.14
2018-07-07T00:48:01.811Z,1016.12
2018-07-07T00:49:01.792Z,1016.12
2018-07-07T00:50:01.798Z,1016.15
2018-07-07T00:51:01.763Z,1016.13
2018-07-07T00:52:01.802Z,1016.12
2018-07-07T00:53:01.791Z,1016.14
2018-07-07T00:54:01.850Z,1016.16
2018-07-07T00:55:01.802Z,1016.15
2018-07-07T00:56:01.849Z,1016.18
2018-07-07T00:57:01.847Z,1016.17
2018-07-07T00:58:01.848Z,1016.15
2018-07-07T00:59:01.851Z,1016.17
2018-07-07T01:00:01.865Z,1016.21
2018-07-07T01:01:01.834Z,1016.22
2018-07-07T01:02:01.846Z,1016.23
2018-07-07T01:03:01.855Z,1016.21
2018-07-07T01:04:01.833Z,1016.24
2018-07-07T01:05:01.855Z,1016.24
2018-07-07T01:06:01.851Z,1016.25
2018-07-07T01:07:01.794Z,1016.27
2018-07-07T01:08:01.800Z,1016.30
2018-07-07T01:09:01.766Z,1016.29
2018-07-07T01:10:01.778Z,1016.30
2018-07-07T01:11:01.785Z,1016.31
2018-07-07T01:12:01.815Z,1016.32
2018-07-07T01:13:01.791Z,1016.32
2018-07-07T01:14:03.593Z,1016.33
2018-07-07T01:15:01.785Z,1016.35
2018-07-07T01:16:01.810Z,1016.37
2018-07-07T01:17:03.631Z,1016.32
2018-07-07T01:18:01.839Z,1016.33
2018-07-07T01:19:01.831Z,1016.33
2018-07-07T01:20:03.594Z,1016.32
2018-07-07T01:21:01.840Z,1016.31
2018-07-07T01:22:01.850Z,1016.31
2018-07-07T01:23:01.846Z,1016.31
2018-07-07T01:24:01.823Z,1016.29
2018-07-07T01:25:01.853Z,1016.30
2018-07-07T01:26:01.832Z,1016.34
2018-07-07T01:27:01.877Z,1016.34
2018-07-07T01:28:01.848Z,1016.30
2018-07-07T01:29:01.834Z,1016.33
2018-07-07T01:30:03.639Z,1016.31
2018-07-07T01:31:01.852Z,1016.32
2018-07-07T01:32:01.794Z,1016.27
2018-07-07T01:33:01.786Z,1016.33
2018-07-07T01:34:01.834Z,1016.28
2018-07-07T01:35:03.716Z,1016.26
2018-07-07T01:36:01.840Z,1016.29
2018-07-07T01:37:01.832Z,1016.27
2018-07-07T01:38:01.816Z,1016.29
2018-07-07T01:39:01.837Z,1016.28
2018-07-07T01:40:01.791Z,1016.27
2018-07-07T01:41:01.813Z,1016.29
2018-07-07T01:42:01.813Z,1016.31
2018-07-07T01:43:01.860Z,1016.32
2018-07-07T01:44:01.797Z,1016.32
2018-07-07T01:45:01.836Z,1016.35
2018-07-07T01:46:01.850Z,1016.32
2018-07-07T01:47:01.829Z,1016.31
2018-07-07T01:48:01.800Z,1016.33
2018-07-07T01:49:01.832Z,1016.31
2018-07-07T01:50:01.843Z,1016.33
2018-07-07T01:51:01.863Z,1016.30
2018-07-07T01:52:01.855Z,1016.31
2018-07-07T01:53:01.831Z,1016.32
2018-07-07T01:54:01.846Z,1016.29
2018-07-07T01:55:01.861Z,1016.32
2018-07-07T01:56:01.861Z,1016.33
2018-07-07T01:57:01.873Z,1016.31
2018-07-07T01:58:01.792Z,1016.34
2018-07-07T01:59:01.784Z,1016.34
2018-07-07T02:00:01.821Z,1016.32
2018-07-07T02:01:01.811Z,1016.32
2018-07-07T02:02:01.832Z,1016.29
2018-07-07T02:03:01.816Z,1016.33
2018-07-07T02:04:01.792Z,1016.30
2018-07-07T02:05:01.842Z,1016.31
2018-07-07T02:06:01.845Z,1016.32
2018-07-07T02:07:01.862Z,1016.30
2018-07-07T02:08:01.876Z,1016.31
2018-07-07T02:09:01.887Z,1016.33
2018-07-07T02:10:01.827Z,1016.31
2018-07-07T02:11:01.907Z,1016.28
2018-07-07T02:12:01.883Z,1016.34
2018-07-07T02:13:01.873Z,1016.30
2018-07-07T02:14:01.863Z,1016.29
2018-07-07T02:15:01.871Z,1016.25
2018-07-07T02:16:01.869Z,1016.28
2018-07-07T02:17:01.860Z,1016.30
2018-07-07T02:18:01.860Z,1016.29
2018-07-07T02:19:01.860Z,1016.26
2018-07-07T02:20:01.832Z,1016.27
2018-07-07T02:21:01.859Z,1016.30
2018-07-07T02:22:01.866Z,1016.30
2018-07-07T02:23:01.828Z,1016.26
2018-07-07T02:24:01.823Z,1016.24
2018-07-07T02:25:01.836Z,1016.25
2018-07-07T02:26:01.833Z,1016.24
2018-07-07T02:27:01.831Z,1016.20
2018-07-07T02:28:01.830Z,1016.20
2018-07-07T02:29:01.850Z,1016.25
2018-07-07T02:30:01.837Z,1016.24
2018-07-07T02:31:01.845Z,1016.23
2018-07-07T02:32:01.831Z,1016.23
2018-07-07T02:33:01.799Z,1016.24
2018-07-07T02:34:01.852Z,1016.27
2018-07-07T02:35:01.860Z,1016.28
2018-07-07T02:36:03.633Z,1016.23
2018-07-07T02:37:01.918Z,1016.23
2018-07-07T02:38:01.943Z,1016.24
2018-07-07T02:39:01.859Z,1016.25
2018-07-07T02:40:01.918Z,1016.32
2018-07-07T02:41:01.937Z,1016.29
2018-07-07T02:42:01.823Z,1016.30
2018-07-07T02:43:01.926Z,1016.30
2018-07-07T02:44:01.920Z,1016.30
2018-07-07T02:45:01.950Z,1016.32
2018-07-07T02:46:01.859Z,1016.36
2018-07-07T02:47:01.859Z,1016.38
2018-07-07T02:48:01.887Z,1016.36
2018-07-07T02:49:01.922Z,1016.37
2018-07-07T02:50:02.061Z,1016.36
2018-07-07T02:51:01.894Z,1016.33
2018-07-07T02:52:01.860Z,1016.37
2018-07-07T02:53:01.783Z,1016.35
2018-07-07T02:54:01.901Z,1016.37
2018-07-07T02:55:01.887Z,1016.35
2018-07-07T02:56:01.856Z,1016.35
2018-07-07T02:57:01.798Z,1016.39
2018-07-07T02:58:01.877Z,1016.35
2018-07-07T02:59:01.789Z,1016.38
2018-07-07T03:00:01.905Z,1016.41
2018-07-07T03:01:01.853Z,1016.38
2018-07-07T03:02:01.871Z,1016.39
2018-07-07T03:03:01.851Z,1016.39
2018-07-07T03:04:01.853Z,1016.37
2018-07-07T03:05:01.843Z,1016.43
2018-07-07T03:06:01.869Z,1016.42
2018-07-07T03:07:01.813Z,1016.45
2018-07-07T03:08:01.862Z,1016.45
2018-07-07T03:09:01.852Z,1016.45
2018-07-07T03:10:01.886Z,1016.43
2018-07-07T03:11:01.916Z,1016.45
2018-07-07T03:12:01.952Z,1016.47
2018-07-07T03:13:01.887Z,1016.46
2018-07-07T03:14:01.937Z,1016.47
2018-07-07T03:15:01.943Z,1016.43
2018-07-07T03:16:01.902Z,1016.50
2018-07-07T03:17:01.954Z,1016.48
2018-07-07T03:18:01.851Z,1016.47
2018-07-07T03:19:01.908Z,1016.49
2018-07-07T03:20:01.930Z,1016.47
2018-07-07T03:21:01.955Z,1016.49
2018-07-07T03:22:01.974Z,1016.49
2018-07-07T03:23:01.938Z,1016.54
2018-07-07T03:24:01.963Z,1016.51
2018-07-07T03:25:01.875Z,1016.55
2018-07-07T03:26:01.869Z,1016.55
2018-07-07T03:27:01.903Z,1016.53
2018-07-07T03:28:01.968Z,1016.59
2018-07-07T03:29:01.858Z,1016.55
2018-07-07T03:30:01.931Z,1016.63
2018-07-07T03:31:01.967Z,1016.60
2018-07-07T03:32:01.903Z,1016.62
2018-07-07T03:33:01.930Z,1016.60
2018-07-07T03:34:01.896Z,1016.57
2018-07-07T03:35:01.856Z,1016.62
2018-07-07T03:36:01.928Z,1016.56
2018-07-07T03:37:01.921Z,1016.60
2018-07-07T03:38:01.973Z,1016.59
2018-07-07T03:39:01.917Z,1016.57
2018-07-07T03:40:01.977Z,1016.64
2018-07-07T03:41:01.867Z,1016.67
2018-07-07T03:42:01.916Z,1016.66
2018-07-07T03:43:01.943Z,1016.69
2018-07-07T03:44:01.868Z,1016.64
2018-07-07T03:45:01.950Z,1016.68
2018-07-07T03:46:01.874Z,1016.69
2018-07-07T03:47:01.953Z,1016.70
2018-07-07T03:48:01.998Z,1016.68
2018-07-07T03:49:01.947Z,1016.69
2018-07-07T03:50:01.877Z,1016.71
2018-07-07T03:51:01.926Z,1016.67
2018-07-07T03:52:01.957Z,1016.75
2018-07-07T03:53:01.953Z,1016.74
2018-07-07T03:54:01.934Z,1016.80
2018-07-07T03:55:03.730Z,1016.80
2018-07-07T03:56:01.910Z,1016.77
2018-07-07T03:57:01.901Z,1016.83
2018-07-07T03:58:01.965Z,1016.82
2018-07-07T03:59:01.982Z,1016.82
2018-07-07T04:00:01.928Z,1016.79
2018-07-07T04:01:01.901Z,1016.81
2018-07-07T04:02:01.896Z,1016.81
2018-07-07T04:03:01.916Z,1016.81
2018-07-07T04:04:01.918Z,1016.81
2018-07-07T04:05:01.904Z,1016.85
2018-07-07T04:06:01.946Z,1016.85
2018-07-07T04:07:01.937Z,1016.81
2018-07-07T04:08:01.963Z,1016.83
2018-07-07T04:09:01.989Z,1016.82
2018-07-07T04:10:01.948Z,1016.88
2018-07-07T04:11:01.860Z,1016.86
2018-07-07T04:12:01.943Z,1016.87
2018-07-07T04:13:01.939Z,1016.91
2018-07-07T04:14:01.867Z,1016.89
2018-07-07T04:15:01.945Z,1016.92
2018-07-07T04:16:02.097Z,1016.95
2018-07-07T04:17:01.955Z,1016.96
2018-07-07T04:18:01.727Z,1016.98
2018-07-07T04:19:01.755Z,1016.98
2018-07-07T04:20:01.722Z,1017.01
2018-07-07T04:21:01.713Z,1016.96
2018-07-07T04:22:01.738Z,1016.98
2018-07-07T04:23:01.782Z,1016.96
2018-07-07T04:24:01.775Z,1016.99
2018-07-07T04:25:01.791Z,1017.02
2018-07-07T04:26:01.712Z,1016.96
2018-07-07T04:27:01.707Z,1017.03
2018-07-07T04:28:01.817Z,1017.01
2018-07-07T04:29:01.561Z,1017.00
2018-07-07T04:30:01.493Z,1016.99
2018-07-07T04:31:01.461Z,1016.99
2018-07-07T04:32:01.868Z,1016.97
2018-07-07T04:33:01.695Z,1016.98
2018-07-07T04:34:01.733Z,1017.06
2018-07-07T04:35:01.700Z,1016.98
2018-07-07T04:36:01.719Z,1017.00
2018-07-07T04:37:02.151Z,1017.05
2018-07-07T04:38:03.401Z,1016.99
2018-07-07T04:39:03.622Z,1017.01
2018-07-07T04:40:01.619Z,1017.02
2018-07-07T04:41:01.602Z,1017.03
2018-07-07T04:42:03.406Z,1017.04
2018-07-07T04:43:03.390Z,1017.01
2018-07-07T04:44:01.605Z,1017.05
2018-07-07T04:45:01.976Z,1017.05
2018-07-07T04:46:03.526Z,1017.07
2018-07-07T04:47:01.857Z,1017.09
2018-07-07T04:48:01.715Z,1017.01
2018-07-07T04:49:01.724Z,1017.10
2018-07-07T04:50:02.160Z,1017.03
2018-07-07T04:51:01.623Z,1017.07
2018-07-07T04:52:01.623Z,1017.07
2018-07-07T04:53:01.611Z,1017.04
2018-07-07T04:54:01.604Z,1017.04
2018-07-07T04:55:01.620Z,1017.08
2018-07-07T04:56:01.665Z,1017.07
2018-07-07T04:57:01.626Z,1017.10
2018-07-07T04:58:01.630Z,1017.09
2018-07-07T04:59:01.709Z,1017.12
2018-07-07T05:00:01.656Z,1017.12
2018-07-07T05:01:01.472Z,1017.14
2018-07-07T05:02:01.607Z,1017.18
2018-07-07T05:03:01.630Z,1017.21
2018-07-07T05:04:01.629Z,1017.20
2018-07-07T05:05:01.560Z,1017.17
2018-07-07T05:06:00.151Z,1017.20
2018-07-07T05:07:02.048Z,1017.19
2018-07-07T05:08:01.971Z,1017.21
2018-07-07T05:09:03.347Z,1017.23
2018-07-07T05:10:01.395Z,1017.21
2018-07-07T05:11:01.505Z,1017.22
2018-07-07T05:12:01.633Z,1017.24
2018-07-07T05:13:01.632Z,1017.25
2018-07-07T05:14:01.668Z,1017.23
2018-07-07T05:15:01.964Z,1017.29
2018-07-07T05:16:01.621Z,1017.28
2018-07-07T05:17:01.507Z,1017.29
2018-07-07T05:18:01.613Z,1017.27
2018-07-07T05:19:01.856Z,1017.31
2018-07-07T05:20:01.198Z,1017.31
2018-07-07T05:21:01.542Z,1017.31
2018-07-07T05:22:01.570Z,1017.33
2018-07-07T05:23:01.613Z,1017.31
2018-07-07T05:24:01.572Z,1017.32
2018-07-07T05:25:01.607Z,1017.29
2018-07-07T05:26:01.533Z,1017.32
2018-07-07T05:27:01.720Z,1017.32
2018-07-07T05:28:01.554Z,1017.33
2018-07-07T05:29:01.696Z,1017.32
2018-07-07T05:30:03.461Z,1017.34
2018-07-07T05:31:01.690Z,1017.34
2018-07-07T05:32:01.591Z,1017.30
2018-07-07T05:33:01.575Z,1017.32
2018-07-07T05:34:01.860Z,1017.35
2018-07-07T05:35:01.205Z,1017.34
2018-07-07T05:36:01.563Z,1017.35
2018-07-07T05:37:01.572Z,1017.34
2018-07-07T05:38:01.571Z,1017.36
2018-07-07T05:39:01.803Z,1017.35
2018-07-07T05:40:01.434Z,1017.33
2018-07-07T05:41:01.214Z,1017.35
2018-07-07T05:42:01.506Z,1017.36
2018-07-07T05:43:01.574Z,1017.35
2018-07-07T05:44:01.596Z,1017.35
2018-07-07T05:45:03.418Z,1017.40
2018-07-07T05:46:01.675Z,1017.36
2018-07-07T05:47:01.618Z,1017.38
2018-07-07T05:48:01.584Z,1017.42
2018-07-07T05:49:01.252Z,1017.36
2018-07-07T05:50:01.751Z,1017.39
2018-07-07T05:51:01.603Z,1017.37
2018-07-07T05:52:01.710Z,1017.41
2018-07-07T05:53:01.670Z,1017.40
2018-07-07T05:54:01.663Z,1017.40
2018-07-07T05:55:01.728Z,1017.38
2018-07-07T05:56:03.579Z,1017.39
2018-07-07T05:57:01.985Z,1017.43
2018-07-07T05:58:01.225Z,1017.44
2018-07-07T05:59:01.664Z,1017.44
2018-07-07T06:00:01.653Z,1017.45
2018-07-07T06:01:01.704Z,1017.38
2018-07-07T06:02:01.623Z,1017.43
2018-07-07T06:03:01.660Z,1017.38
2018-07-07T06:04:01.736Z,1017.34
2018-07-07T06:05:01.688Z,1017.43
2018-07-07T06:06:01.703Z,1017.41
2018-07-07T06:07:07.383Z,1017.42
2018-07-07T06:08:01.562Z,1017.45
2018-07-07T06:09:01.679Z,1017.46
2018-07-07T06:10:01.609Z,1017.46
2018-07-07T06:11:01.509Z,1017.44
2018-07-07T06:12:01.502Z,1017.46
2018-07-07T06:13:01.590Z,1017.47
2018-07-07T06:14:01.551Z,1017.48
2018-07-07T06:15:01.503Z,1017.42
2018-07-07T06:16:01.535Z,1017.43
2018-07-07T06:17:01.599Z,1017.41
2018-07-07T06:18:01.467Z,1017.43
2018-07-07T06:19:01.535Z,1017.44
2018-07-07T06:20:02.131Z,1017.44
2018-07-07T06:21:01.595Z,1017.44
2018-07-07T06:22:01.543Z,1017.48
2018-07-07T06:23:01.541Z,1017.53
2018-07-07T06:24:01.549Z,1017.49
2018-07-07T06:25:01.513Z,1017.54
2018-07-07T06:26:01.707Z,1017.47
2018-07-07T06:27:01.647Z,1017.45
2018-07-07T06:28:02.269Z,1017.46
2018-07-07T06:29:01.648Z,1017.46
2018-07-07T06:30:02.140Z,1017.47
2018-07-07T06:31:01.921Z,1017.45
2018-07-07T06:32:01.234Z,1017.40
2018-07-07T06:33:01.592Z,1017.45
2018-07-07T06:35:01.797Z,1017.45
2018-07-07T06:36:01.717Z,1017.44
2018-07-07T06:37:01.664Z,1017.42
2018-07-07T06:38:01.499Z,1017.47
2018-07-07T06:39:01.510Z,1017.44
2018-07-07T06:40:01.546Z,1017.45
2018-07-07T06:41:01.547Z,1017.42
2018-07-07T06:42:01.531Z,1017.44
2018-07-07T06:43:01.499Z,1017.43
2018-07-07T06:44:01.522Z,1017.44
2018-07-07T06:45:01.527Z,1017.44
2018-07-07T06:46:01.513Z,1017.46
2018-07-07T06:47:01.584Z,1017.46
2018-07-07T06:48:01.257Z,1017.45
2018-07-07T06:49:01.478Z,1017.41
2018-07-07T06:50:01.504Z,1017.48
2018-07-07T06:51:01.562Z,1017.49
2018-07-07T06:52:01.699Z,1017.48
2018-07-07T06:53:01.636Z,1017.51
2018-07-07T06:54:01.768Z,1017.48
2018-07-07T06:55:01.551Z,1017.49
2018-07-07T06:56:01.597Z,1017.56
2018-07-07T06:57:01.608Z,1017.54
2018-07-07T06:58:01.590Z,1017.52
2018-07-07T06:59:01.596Z,1017.52
2018-07-07T07:00:01.860Z,1017.53
2018-07-07T07:01:01.510Z,1017.49
2018-07-07T07:02:01.655Z,1017.54
2018-07-07T07:03:01.629Z,1017.50
2018-07-07T07:04:02.142Z,1017.52
2018-07-07T07:05:01.092Z,1017.54
2018-07-07T07:06:01.377Z,1017.50
2018-07-07T07:07:01.412Z,1017.57
2018-07-07T07:08:01.666Z,1017.54
2018-07-07T07:09:01.423Z,1017.58
2018-07-07T07:10:01.449Z,1017.56
2018-07-07T07:11:01.404Z,1017.57
2018-07-07T07:12:01.449Z,1017.54
2018-07-07T07:13:01.478Z,1017.54
2018-07-07T07:14:01.480Z,1017.56
2018-07-07T07:15:01.663Z,1017.54
2018-07-07T07:16:01.712Z,1017.57
2018-07-07T07:17:01.274Z,1017.57
2018-07-07T07:18:02.265Z,1017.53
2018-07-07T07:19:01.524Z,1017.58
2018-07-07T07:20:02.132Z,1017.55
